Lineboro, Maryland
Current Conditions -  °F | °C
As of 7:40 AM on Saturday 25 Oct 2014 (Local Time) from KDMW Reporting Station
Clear Clear  
Wind Chill:   Ceiling: Unl
Heat Index:   Visibility: 10mi
Dew Point:   Wind: 0mph
Humidity: 71%   Direction: NA
Pressure: 29.94"   Gusts: NA
Location:  39.72°N, 76.84°W
Report Text: KDMW 251140Z AUTO 00000KT 10SM CLR 08/03 A2994 RMK AO2
Loading
Personal Weather Stations






























Interactive Weather Map
Tropical Storm Tracking
New forecast layout! Learn more

10-Day Weather Forecast

Advertisements
Track Severe Weather on mobile